sensor_id;sensor_type;location;lat;lon;timestamp;P1;durP1;ratioP1;P2;durP2;ratioP2
18973;SDS011;9621;48.690;9.466;2022-07-01T00:01:37;9.52;;;1.52;;
18973;SDS011;9621;48.690;9.466;2022-07-01T00:04:05;2.33;;;1.40;;
18973;SDS011;9621;48.690;9.466;2022-07-01T00:06:32;2.78;;;1.30;;
18973;SDS011;9621;48.690;9.466;2022-07-01T00:09:00;2.72;;;1.60;;
18973;SDS011;9621;48.690;9.466;2022-07-01T00:11:28;3.20;;;1.33;;
18973;SDS011;9621;48.690;9.466;2022-07-01T00:13:55;3.38;;;1.40;;
18973;SDS011;9621;48.690;9.466;2022-07-01T00:16:23;2.45;;;1.30;;
18973;SDS011;9621;48.690;9.466;2022-07-01T00:18:50;2.22;;;1.45;;
18973;SDS011;9621;48.690;9.466;2022-07-01T00:21:17;3.15;;;1.40;;
18973;SDS011;9621;48.690;9.466;2022-07-01T00:23:44;2.45;;;1.20;;
18973;SDS011;9621;48.690;9.466;2022-07-01T00:26:10;2.85;;;1.33;;
18973;SDS011;9621;48.690;9.466;2022-07-01T00:28:39;2.20;;;1.30;;
18973;SDS011;9621;48.690;9.466;2022-07-01T00:31:06;2.17;;;1.40;;
18973;SDS011;9621;48.690;9.466;2022-07-01T00:33:33;4.05;;;1.50;;
18973;SDS011;9621;48.690;9.466;2022-07-01T00:36:00;2.67;;;1.58;;
18973;SDS011;9621;48.690;9.466;2022-07-01T00:38:27;2.10;;;1.20;;
18973;SDS011;9621;48.690;9.466;2022-07-01T00:40:54;2.05;;;1.20;;
18973;SDS011;9621;48.690;9.466;2022-07-01T00:43:21;2.17;;;1.30;;
18973;SDS011;9621;48.690;9.466;2022-07-01T00:45:51;2.00;;;1.00;;
18973;SDS011;9621;48.690;9.466;2022-07-01T00:48:18;2.28;;;0.90;;
18973;SDS011;9621;48.690;9.466;2022-07-01T00:50:47;1.55;;;1.00;;
18973;SDS011;9621;48.690;9.466;2022-07-01T00:53:15;1.77;;;1.08;;
18973;SDS011;9621;48.690;9.466;2022-07-01T00:55:43;2.15;;;1.13;;
18973;SDS011;9621;48.690;9.466;2022-07-01T00:58:10;2.13;;;1.00;;
18973;SDS011;9621;48.690;9.466;2022-07-01T01:00:37;1.77;;;1.10;;
18973;SDS011;9621;48.690;9.466;2022-07-01T01:03:06;2.15;;;1.08;;
18973;SDS011;9621;48.690;9.466;2022-07-01T01:05:36;3.83;;;1.00;;
18973;SDS011;9621;48.690;9.466;2022-07-01T01:08:03;2.72;;;1.10;;
18973;SDS011;9621;48.690;9.466;2022-07-01T01:10:31;7.13;;;1.10;;
18973;SDS011;9621;48.690;9.466;2022-07-01T01:12:57;1.65;;;1.02;;
18973;SDS011;9621;48.690;9.466;2022-07-01T01:15:24;1.75;;;1.23;;
18973;SDS011;9621;48.690;9.466;2022-07-01T01:17:53;4.32;;;1.60;;
18973;SDS011;9621;48.690;9.466;2022-07-01T01:20:21;2.38;;;1.35;;
18973;SDS011;9621;48.690;9.466;2022-07-01T01:22:49;4.63;;;1.52;;
18973;SDS011;9621;48.690;9.466;2022-07-01T01:25:17;3.13;;;1.30;;
18973;SDS011;9621;48.690;9.466;2022-07-01T01:27:44;2.55;;;1.40;;
18973;SDS011;9621;48.690;9.466;2022-07-01T01:30:11;3.15;;;1.25;;
18973;SDS011;9621;48.690;9.466;2022-07-01T01:32:39;2.72;;;1.30;;
18973;SDS011;9621;48.690;9.466;2022-07-01T01:35:08;4.13;;;1.35;;
18973;SDS011;9621;48.690;9.466;2022-07-01T01:37:36;2.15;;;1.35;;
18973;SDS011;9621;48.690;9.466;2022-07-01T01:40:05;3.10;;;1.40;;
18973;SDS011;9621;48.690;9.466;2022-07-01T01:42:32;3.50;;;1.38;;
18973;SDS011;9621;48.690;9.466;2022-07-01T01:45:00;1.65;;;1.23;;
18973;SDS011;9621;48.690;9.466;2022-07-01T01:47:28;2.85;;;1.30;;
18973;SDS011;9621;48.690;9.466;2022-07-01T01:49:55;2.15;;;1.10;;
18973;SDS011;9621;48.690;9.466;2022-07-01T01:52:22;4.25;;;1.35;;
18973;SDS011;9621;48.690;9.466;2022-07-01T01:54:49;3.25;;;1.40;;
18973;SDS011;9621;48.690;9.466;2022-07-01T01:57:17;1.42;;;1.17;;
18973;SDS011;9621;48.690;9.466;2022-07-01T01:59:44;2.67;;;1.13;;
18973;SDS011;9621;48.690;9.466;2022-07-01T02:02:11;2.33;;;1.23;;
18973;SDS011;9621;48.690;9.466;2022-07-01T02:04:38;1.58;;;1.40;;
18973;SDS011;9621;48.690;9.466;2022-07-01T02:07:06;5.35;;;1.48;;
18973;SDS011;9621;48.690;9.466;2022-07-01T02:09:33;1.92;;;1.30;;
18973;SDS011;9621;48.690;9.466;2022-07-01T02:11:59;3.50;;;1.48;;
18973;SDS011;9621;48.690;9.466;2022-07-01T02:14:29;2.00;;;1.20;;
18973;SDS011;9621;48.690;9.466;2022-07-01T02:16:56;3.10;;;1.42;;
18973;SDS011;9621;48.690;9.466;2022-07-01T02:19:23;2.45;;;1.15;;
18973;SDS011;9621;48.690;9.466;2022-07-01T02:21:50;1.95;;;1.35;;
18973;SDS011;9621;48.690;9.466;2022-07-01T02:24:17;2.45;;;1.40;;
18973;SDS011;9621;48.690;9.466;2022-07-01T02:26:44;2.05;;;1.20;;
18973;SDS011;9621;48.690;9.466;2022-07-01T02:29:11;2.33;;;1.15;;
18973;SDS011;9621;48.690;9.466;2022-07-01T02:31:40;1.27;;;1.17;;
18973;SDS011;9621;48.690;9.466;2022-07-01T02:34:07;1.35;;;1.17;;
18973;SDS011;9621;48.690;9.466;2022-07-01T02:36:35;4.53;;;1.40;;
18973;SDS011;9621;48.690;9.466;2022-07-01T02:39:02;2.53;;;1.10;;
18973;SDS011;9621;48.690;9.466;2022-07-01T02:41:28;1.33;;;0.90;;
18973;SDS011;9621;48.690;9.466;2022-07-01T02:43:56;2.28;;;1.13;;
18973;SDS011;9621;48.690;9.466;2022-07-01T02:46:22;2.35;;;1.05;;
18973;SDS011;9621;48.690;9.466;2022-07-01T02:48:51;1.85;;;1.10;;
18973;SDS011;9621;48.690;9.466;2022-07-01T02:51:18;4.10;;;1.30;;
18973;SDS011;9621;48.690;9.466;2022-07-01T02:53:45;4.65;;;1.05;;
18973;SDS011;9621;48.690;9.466;2022-07-01T02:56:11;2.00;;;1.17;;
18973;SDS011;9621;48.690;9.466;2022-07-01T02:58:40;1.60;;;1.20;;
18973;SDS011;9621;48.690;9.466;2022-07-01T03:01:07;2.83;;;1.25;;
18973;SDS011;9621;48.690;9.466;2022-07-01T03:03:34;1.10;;;1.00;;
18973;SDS011;9621;48.690;9.466;2022-07-01T03:06:02;2.03;;;1.17;;
18973;SDS011;9621;48.690;9.466;2022-07-01T03:08:29;1.17;;;0.98;;
18973;SDS011;9621;48.690;9.466;2022-07-01T03:10:56;4.60;;;1.10;;
18973;SDS011;9621;48.690;9.466;2022-07-01T03:13:23;3.70;;;1.20;;
18973;SDS011;9621;48.690;9.466;2022-07-01T03:15:50;2.53;;;1.23;;
18973;SDS011;9621;48.690;9.466;2022-07-01T03:18:17;3.17;;;1.00;;
18973;SDS011;9621;48.690;9.466;2022-07-01T03:20:44;1.17;;;1.08;;
18973;SDS011;9621;48.690;9.466;2022-07-01T03:23:12;3.70;;;1.00;;
18973;SDS011;9621;48.690;9.466;2022-07-01T03:25:39;1.17;;;1.05;;
18973;SDS011;9621;48.690;9.466;2022-07-01T03:28:06;1.70;;;1.10;;
18973;SDS011;9621;48.690;9.466;2022-07-01T03:30:33;3.38;;;1.45;;
18973;SDS011;9621;48.690;9.466;2022-07-01T03:33:00;1.55;;;1.13;;
18973;SDS011;9621;48.690;9.466;2022-07-01T03:35:28;1.30;;;1.20;;
18973;SDS011;9621;48.690;9.466;2022-07-01T03:38:06;1.33;;;1.00;;
18973;SDS011;9621;48.690;9.466;2022-07-01T03:40:35;1.45;;;1.20;;
18973;SDS011;9621;48.690;9.466;2022-07-01T03:43:02;4.38;;;1.33;;
18973;SDS011;9621;48.690;9.466;2022-07-01T03:45:29;3.30;;;1.42;;
18973;SDS011;9621;48.690;9.466;2022-07-01T03:47:56;2.75;;;1.30;;
18973;SDS011;9621;48.690;9.466;2022-07-01T03:50:24;3.45;;;1.10;;
18973;SDS011;9621;48.690;9.466;2022-07-01T03:52:52;4.05;;;1.20;;
18973;SDS011;9621;48.690;9.466;2022-07-01T03:55:34;2.35;;;1.13;;
18973;SDS011;9621;48.690;9.466;2022-07-01T03:58:01;1.77;;;1.02;;
18973;SDS011;9621;48.690;9.466;2022-07-01T04:00:28;2.03;;;1.20;;
18973;SDS011;9621;48.690;9.466;2022-07-01T04:02:58;2.33;;;1.30;;
18973;SDS011;9621;48.690;9.466;2022-07-01T04:05:25;1.67;;;1.38;;
18973;SDS011;9621;48.690;9.466;2022-07-01T04:07:52;1.73;;;1.27;;
18973;SDS011;9621;48.690;9.466;2022-07-01T04:10:19;1.75;;;1.40;;
18973;SDS011;9621;48.690;9.466;2022-07-01T04:12:48;3.15;;;1.00;;
18973;SDS011;9621;48.690;9.466;2022-07-01T04:15:15;2.63;;;1.30;;
18973;SDS011;9621;48.690;9.466;2022-07-01T04:17:42;4.00;;;1.30;;
18973;SDS011;9621;48.690;9.466;2022-07-01T04:20:10;4.82;;;1.60;;
18973;SDS011;9621;48.690;9.466;2022-07-01T04:22:37;3.55;;;1.67;;
18973;SDS011;9621;48.690;9.466;2022-07-01T04:25:04;1.95;;;1.33;;
18973;SDS011;9621;48.690;9.466;2022-07-01T04:27:32;2.55;;;1.48;;
18973;SDS011;9621;48.690;9.466;2022-07-01T04:30:00;2.50;;;1.52;;
18973;SDS011;9621;48.690;9.466;2022-07-01T04:32:28;2.25;;;1.20;;
18973;SDS011;9621;48.690;9.466;2022-07-01T04:34:56;1.70;;;1.40;;
18973;SDS011;9621;48.690;9.466;2022-07-01T04:37:23;2.13;;;1.30;;
18973;SDS011;9621;48.690;9.466;2022-07-01T04:39:50;1.70;;;1.30;;
18973;SDS011;9621;48.690;9.466;2022-07-01T04:42:17;1.30;;;1.20;;
18973;SDS011;9621;48.690;9.466;2022-07-01T04:44:45;2.33;;;1.15;;
18973;SDS011;9621;48.690;9.466;2022-07-01T04:47:13;1.92;;;1.20;;
18973;SDS011;9621;48.690;9.466;2022-07-01T04:49:40;3.10;;;1.20;;
18973;SDS011;9621;48.690;9.466;2022-07-01T04:52:08;1.63;;;1.23;;
18973;SDS011;9621;48.690;9.466;2022-07-01T04:54:35;2.75;;;1.40;;
18973;SDS011;9621;48.690;9.466;2022-07-01T04:57:03;1.77;;;1.30;;
18973;SDS011;9621;48.690;9.466;2022-07-01T04:59:30;2.47;;;1.10;;
18973;SDS011;9621;48.690;9.466;2022-07-01T05:01:57;1.23;;;1.13;;
18973;SDS011;9621;48.690;9.466;2022-07-01T05:04:26;1.23;;;1.08;;
18973;SDS011;9621;48.690;9.466;2022-07-01T05:06:53;4.95;;;1.30;;
18973;SDS011;9621;48.690;9.466;2022-07-01T05:09:20;1.80;;;1.00;;
18973;SDS011;9621;48.690;9.466;2022-07-01T05:11:47;2.47;;;1.50;;
18973;SDS011;9621;48.690;9.466;2022-07-01T05:14:18;1.63;;;1.25;;
18973;SDS011;9621;48.690;9.466;2022-07-01T05:17:00;2.22;;;1.23;;
18973;SDS011;9621;48.690;9.466;2022-07-01T05:19:29;1.20;;;0.98;;
18973;SDS011;9621;48.690;9.466;2022-07-01T05:22:13;2.40;;;1.00;;
18973;SDS011;9621;48.690;9.466;2022-07-01T05:24:40;3.13;;;1.33;;
18973;SDS011;9621;48.690;9.466;2022-07-01T05:27:07;1.50;;;1.20;;
18973;SDS011;9621;48.690;9.466;2022-07-01T05:29:34;1.55;;;1.30;;
18973;SDS011;9621;48.690;9.466;2022-07-01T05:32:02;3.45;;;1.40;;
18973;SDS011;9621;48.690;9.466;2022-07-01T05:34:31;3.30;;;1.20;;
18973;SDS011;9621;48.690;9.466;2022-07-01T05:36:58;1.83;;;1.20;;
18973;SDS011;9621;48.690;9.466;2022-07-01T05:39:25;3.28;;;1.27;;
18973;SDS011;9621;48.690;9.466;2022-07-01T05:41:52;2.70;;;1.10;;
18973;SDS011;9621;48.690;9.466;2022-07-01T05:44:19;2.55;;;1.42;;
18973;SDS011;9621;48.690;9.466;2022-07-01T05:46:47;3.40;;;1.20;;
18973;SDS011;9621;48.690;9.466;2022-07-01T05:49:14;3.10;;;1.30;;
18973;SDS011;9621;48.690;9.466;2022-07-01T05:51:42;4.80;;;1.40;;
18973;SDS011;9621;48.690;9.466;2022-07-01T05:54:09;2.33;;;1.45;;
18973;SDS011;9621;48.690;9.466;2022-07-01T05:56:36;2.08;;;1.45;;
18973;SDS011;9621;48.690;9.466;2022-07-01T05:59:03;1.63;;;1.30;;
18973;SDS011;9621;48.690;9.466;2022-07-01T06:01:30;3.38;;;1.40;;
18973;SDS011;9621;48.690;9.466;2022-07-01T06:03:57;2.53;;;1.60;;
18973;SDS011;9621;48.690;9.466;2022-07-01T06:06:24;4.40;;;1.75;;
18973;SDS011;9621;48.690;9.466;2022-07-01T06:08:52;4.57;;;1.67;;
18973;SDS011;9621;48.690;9.466;2022-07-01T06:11:19;5.00;;;1.80;;
18973;SDS011;9621;48.690;9.466;2022-07-01T06:13:45;2.45;;;1.50;;
18973;SDS011;9621;48.690;9.466;2022-07-01T06:16:12;1.95;;;1.75;;
18973;SDS011;9621;48.690;9.466;2022-07-01T06:18:39;2.55;;;1.70;;
18973;SDS011;9621;48.690;9.466;2022-07-01T06:21:06;3.67;;;1.90;;
18973;SDS011;9621;48.690;9.466;2022-07-01T06:23:33;6.85;;;2.00;;
18973;SDS011;9621;48.690;9.466;2022-07-01T06:26:02;3.05;;;2.00;;
18973;SDS011;9621;48.690;9.466;2022-07-01T06:28:29;3.28;;;1.95;;
18973;SDS011;9621;48.690;9.466;2022-07-01T06:30:56;6.13;;;2.45;;
18973;SDS011;9621;48.690;9.466;2022-07-01T06:33:25;3.13;;;1.88;;
18973;SDS011;9621;48.690;9.466;2022-07-01T06:35:55;1.90;;;1.80;;
18973;SDS011;9621;48.690;9.466;2022-07-01T06:38:23;2.30;;;1.90;;
18973;SDS011;9621;48.690;9.466;2022-07-01T06:40:50;2.78;;;1.98;;
18973;SDS011;9621;48.690;9.466;2022-07-01T06:43:32;3.28;;;1.90;;
18973;SDS011;9621;48.690;9.466;2022-07-01T06:45:59;2.95;;;1.85;;
18973;SDS011;9621;48.690;9.466;2022-07-01T06:48:26;2.17;;;1.80;;
18973;SDS011;9621;48.690;9.466;2022-07-01T06:50:53;4.18;;;1.90;;
18973;SDS011;9621;48.690;9.466;2022-07-01T06:53:20;3.28;;;2.13;;
18973;SDS011;9621;48.690;9.466;2022-07-01T06:55:47;2.92;;;2.17;;
18973;SDS011;9621;48.690;9.466;2022-07-01T06:58:14;3.03;;;1.75;;
18973;SDS011;9621;48.690;9.466;2022-07-01T07:00:42;2.28;;;1.80;;
18973;SDS011;9621;48.690;9.466;2022-07-01T07:03:09;2.40;;;1.85;;
18973;SDS011;9621;48.690;9.466;2022-07-01T07:05:37;3.15;;;2.05;;
18973;SDS011;9621;48.690;9.466;2022-07-01T07:08:04;2.25;;;1.65;;
18973;SDS011;9621;48.690;9.466;2022-07-01T07:10:31;2.72;;;1.70;;
18973;SDS011;9621;48.690;9.466;2022-07-01T07:12:58;3.33;;;1.80;;
18973;SDS011;9621;48.690;9.466;2022-07-01T07:15:25;3.08;;;1.67;;
18973;SDS011;9621;48.690;9.466;2022-07-01T07:17:53;3.10;;;2.03;;
18973;SDS011;9621;48.690;9.466;2022-07-01T07:20:22;3.30;;;1.70;;
18973;SDS011;9621;48.690;9.466;2022-07-01T07:22:49;2.28;;;1.83;;
18973;SDS011;9621;48.690;9.466;2022-07-01T07:25:16;2.75;;;2.03;;
18973;SDS011;9621;48.690;9.466;2022-07-01T07:27:43;2.05;;;1.80;;
18973;SDS011;9621;48.690;9.466;2022-07-01T07:30:11;1.73;;;1.58;;
18973;SDS011;9621;48.690;9.466;2022-07-01T07:32:38;6.40;;;2.15;;
18973;SDS011;9621;48.690;9.466;2022-07-01T07:35:08;2.55;;;1.92;;
18973;SDS011;9621;48.690;9.466;2022-07-01T07:37:35;2.13;;;1.67;;
18973;SDS011;9621;48.690;9.466;2022-07-01T07:40:03;3.33;;;2.10;;
18973;SDS011;9621;48.690;9.466;2022-07-01T07:42:33;2.58;;;1.40;;
18973;SDS011;9621;48.690;9.466;2022-07-01T07:45:00;3.22;;;1.48;;
18973;SDS011;9621;48.690;9.466;2022-07-01T07:47:27;3.40;;;1.60;;
18973;SDS011;9621;48.690;9.466;2022-07-01T07:49:54;2.60;;;1.67;;
18973;SDS011;9621;48.690;9.466;2022-07-01T07:52:23;2.85;;;1.80;;
18973;SDS011;9621;48.690;9.466;2022-07-01T07:54:50;2.72;;;1.75;;
18973;SDS011;9621;48.690;9.466;2022-07-01T07:57:17;2.67;;;1.80;;
18973;SDS011;9621;48.690;9.466;2022-07-01T07:59:44;3.13;;;2.00;;
18973;SDS011;9621;48.690;9.466;2022-07-01T08:02:11;2.45;;;1.50;;
18973;SDS011;9621;48.690;9.466;2022-07-01T08:04:39;2.30;;;1.77;;
18973;SDS011;9621;48.690;9.466;2022-07-01T08:07:05;2.90;;;2.05;;
18973;SDS011;9621;48.690;9.466;2022-07-01T08:09:34;3.60;;;2.08;;
18973;SDS011;9621;48.690;9.466;2022-07-01T08:12:01;3.08;;;2.20;;
18973;SDS011;9621;48.690;9.466;2022-07-01T08:14:29;2.67;;;2.00;;
18973;SDS011;9621;48.690;9.466;2022-07-01T08:16:56;8.48;;;2.58;;
18973;SDS011;9621;48.690;9.466;2022-07-01T08:19:23;3.05;;;1.98;;
18973;SDS011;9621;48.690;9.466;2022-07-01T08:21:50;1.92;;;1.58;;
18973;SDS011;9621;48.690;9.466;2022-07-01T08:24:17;4.45;;;1.85;;
18973;SDS011;9621;48.690;9.466;2022-07-01T08:26:45;3.45;;;1.92;;
18973;SDS011;9621;48.690;9.466;2022-07-01T08:29:12;2.83;;;2.10;;
18973;SDS011;9621;48.690;9.466;2022-07-01T08:31:39;4.22;;;2.03;;
18973;SDS011;9621;48.690;9.466;2022-07-01T08:34:06;2.80;;;2.10;;
18973;SDS011;9621;48.690;9.466;2022-07-01T08:36:34;3.28;;;1.73;;
18973;SDS011;9621;48.690;9.466;2022-07-01T08:39:01;2.53;;;1.80;;
18973;SDS011;9621;48.690;9.466;2022-07-01T08:41:29;4.57;;;1.75;;
18973;SDS011;9621;48.690;9.466;2022-07-01T08:43:57;2.50;;;1.98;;
18973;SDS011;9621;48.690;9.466;2022-07-01T08:46:25;5.32;;;2.00;;
18973;SDS011;9621;48.690;9.466;2022-07-01T08:48:52;2.78;;;1.63;;
18973;SDS011;9621;48.690;9.466;2022-07-01T08:51:20;2.05;;;1.75;;
18973;SDS011;9621;48.690;9.466;2022-07-01T08:53:46;2.85;;;1.95;;
18973;SDS011;9621;48.690;9.466;2022-07-01T08:56:13;1.73;;;1.55;;
18973;SDS011;9621;48.690;9.466;2022-07-01T08:58:59;3.47;;;1.83;;
18973;SDS011;9621;48.690;9.466;2022-07-01T09:01:26;2.95;;;1.70;;
18973;SDS011;9621;48.690;9.466;2022-07-01T09:03:54;1.88;;;1.60;;
18973;SDS011;9621;48.690;9.466;2022-07-01T09:06:22;2.97;;;1.58;;
18973;SDS011;9621;48.690;9.466;2022-07-01T09:08:50;2.45;;;1.80;;
18973;SDS011;9621;48.690;9.466;2022-07-01T09:11:17;2.88;;;1.50;;
18973;SDS011;9621;48.690;9.466;2022-07-01T09:14:04;1.67;;;1.58;;
18973;SDS011;9621;48.690;9.466;2022-07-01T09:16:39;2.38;;;1.88;;
18973;SDS011;9621;48.690;9.466;2022-07-01T09:19:07;2.83;;;1.98;;
18973;SDS011;9621;48.690;9.466;2022-07-01T09:21:34;4.20;;;1.92;;
18973;SDS011;9621;48.690;9.466;2022-07-01T09:24:02;2.08;;;1.65;;
18973;SDS011;9621;48.690;9.466;2022-07-01T09:26:30;3.42;;;2.00;;
18973;SDS011;9621;48.690;9.466;2022-07-01T09:28:57;2.15;;;1.70;;
18973;SDS011;9621;48.690;9.466;2022-07-01T09:31:32;2.85;;;2.10;;
18973;SDS011;9621;48.690;9.466;2022-07-01T09:34:03;2.67;;;2.20;;
18973;SDS011;9621;48.690;9.466;2022-07-01T09:36:32;3.40;;;1.90;;
18973;SDS011;9621;48.690;9.466;2022-07-01T09:39:05;2.53;;;2.05;;
18973;SDS011;9621;48.690;9.466;2022-07-01T09:41:35;3.22;;;2.17;;
18973;SDS011;9621;48.690;9.466;2022-07-01T09:44:06;3.22;;;2.28;;
18973;SDS011;9621;48.690;9.466;2022-07-01T09:46:36;4.03;;;2.58;;
18973;SDS011;9621;48.690;9.466;2022-07-01T09:49:03;2.17;;;1.98;;
18973;SDS011;9621;48.690;9.466;2022-07-01T09:51:30;4.28;;;1.90;;
18973;SDS011;9621;48.690;9.466;2022-07-01T09:53:57;3.33;;;1.90;;
18973;SDS011;9621;48.690;9.466;2022-07-01T09:56:24;2.80;;;2.20;;
18973;SDS011;9621;48.690;9.466;2022-07-01T09:58:51;2.40;;;1.83;;
18973;SDS011;9621;48.690;9.466;2022-07-01T10:01:18;2.67;;;2.00;;
18973;SDS011;9621;48.690;9.466;2022-07-01T10:03:47;3.50;;;2.00;;
18973;SDS011;9621;48.690;9.466;2022-07-01T10:06:23;2.17;;;1.88;;
18973;SDS011;9621;48.690;9.466;2022-07-01T10:09:02;2.92;;;1.85;;
18973;SDS011;9621;48.690;9.466;2022-07-01T10:14:59;2.65;;;1.83;;
18973;SDS011;9621;48.690;9.466;2022-07-01T10:17:28;2.13;;;1.50;;
18973;SDS011;9621;48.690;9.466;2022-07-01T10:20:05;2.05;;;1.60;;
18973;SDS011;9621;48.690;9.466;2022-07-01T10:22:34;2.20;;;1.90;;
18973;SDS011;9621;48.690;9.466;2022-07-01T10:28:17;2.47;;;1.90;;
18973;SDS011;9621;48.690;9.466;2022-07-01T10:30:53;3.83;;;2.00;;
18973;SDS011;9621;48.690;9.466;2022-07-01T10:39:28;3.15;;;1.70;;
18973;SDS011;9621;48.690;9.466;2022-07-01T10:42:04;2.13;;;1.63;;
18973;SDS011;9621;48.690;9.466;2022-07-01T10:44:34;3.45;;;1.77;;
18973;SDS011;9621;48.690;9.466;2022-07-01T10:47:02;3.28;;;2.15;;
18973;SDS011;9621;48.690;9.466;2022-07-01T10:52:34;3.53;;;1.60;;
18973;SDS011;9621;48.690;9.466;2022-07-01T10:55:03;2.05;;;1.50;;
18973;SDS011;9621;48.690;9.466;2022-07-01T10:57:34;2.42;;;1.60;;
18973;SDS011;9621;48.690;9.466;2022-07-01T11:03:11;3.25;;;1.70;;
18973;SDS011;9621;48.690;9.466;2022-07-01T11:05:42;5.32;;;1.50;;
18973;SDS011;9621;48.690;9.466;2022-07-01T11:08:12;2.30;;;1.50;;
18973;SDS011;9621;48.690;9.466;2022-07-01T11:10:40;1.98;;;1.30;;
18973;SDS011;9621;48.690;9.466;2022-07-01T11:13:07;2.15;;;1.48;;
18973;SDS011;9621;48.690;9.466;2022-07-01T11:15:39;2.20;;;1.50;;
18973;SDS011;9621;48.690;9.466;2022-07-01T11:18:06;2.03;;;1.58;;
18973;SDS011;9621;48.690;9.466;2022-07-01T11:20:33;3.72;;;1.70;;
18973;SDS011;9621;48.690;9.466;2022-07-01T11:23:00;1.65;;;1.55;;
18973;SDS011;9621;48.690;9.466;2022-07-01T11:25:29;2.65;;;1.40;;
18973;SDS011;9621;48.690;9.466;2022-07-01T11:27:56;2.45;;;1.77;;
18973;SDS011;9621;48.690;9.466;2022-07-01T11:30:24;2.25;;;1.67;;
18973;SDS011;9621;48.690;9.466;2022-07-01T11:32:52;1.65;;;1.30;;
18973;SDS011;9621;48.690;9.466;2022-07-01T11:35:21;3.28;;;1.80;;
18973;SDS011;9621;48.690;9.466;2022-07-01T11:38:07;3.47;;;1.63;;
18973;SDS011;9621;48.690;9.466;2022-07-01T11:40:55;2.92;;;1.58;;
18973;SDS011;9621;48.690;9.466;2022-07-01T11:43:24;2.53;;;1.63;;
18973;SDS011;9621;48.690;9.466;2022-07-01T11:45:52;2.05;;;1.60;;
18973;SDS011;9621;48.690;9.466;2022-07-01T11:48:36;4.43;;;1.63;;
18973;SDS011;9621;48.690;9.466;2022-07-01T11:51:05;3.33;;;2.00;;
18973;SDS011;9621;48.690;9.466;2022-07-01T11:53:34;3.00;;;1.63;;
18973;SDS011;9621;48.690;9.466;2022-07-01T11:56:03;2.30;;;1.40;;
18973;SDS011;9621;48.690;9.466;2022-07-01T11:58:40;2.90;;;1.20;;
18973;SDS011;9621;48.690;9.466;2022-07-01T12:01:09;3.50;;;1.42;;
18973;SDS011;9621;48.690;9.466;2022-07-01T12:03:36;3.40;;;1.50;;
18973;SDS011;9621;48.690;9.466;2022-07-01T12:06:03;2.22;;;1.30;;
18973;SDS011;9621;48.690;9.466;2022-07-01T12:08:31;3.95;;;1.35;;
18973;SDS011;9621;48.690;9.466;2022-07-01T12:10:58;4.75;;;1.27;;
18973;SDS011;9621;48.690;9.466;2022-07-01T12:13:27;2.05;;;1.00;;
18973;SDS011;9621;48.690;9.466;2022-07-01T12:16:05;3.13;;;1.40;;
18973;SDS011;9621;48.690;9.466;2022-07-01T12:18:33;5.22;;;1.13;;
18973;SDS011;9621;48.690;9.466;2022-07-01T12:21:00;2.65;;;1.30;;
18973;SDS011;9621;48.690;9.466;2022-07-01T12:23:28;3.03;;;1.40;;
18973;SDS011;9621;48.690;9.466;2022-07-01T12:25:55;2.70;;;1.55;;
18973;SDS011;9621;48.690;9.466;2022-07-01T12:28:30;2.65;;;1.30;;
18973;SDS011;9621;48.690;9.466;2022-07-01T12:31:00;1.33;;;1.10;;
18973;SDS011;9621;48.690;9.466;2022-07-01T12:33:33;6.45;;;1.85;;
18973;SDS011;9621;48.690;9.466;2022-07-01T12:36:02;2.17;;;1.50;;
18973;SDS011;9621;48.690;9.466;2022-07-01T12:38:29;3.17;;;1.60;;
18973;SDS011;9621;48.690;9.466;2022-07-01T12:40:57;4.20;;;1.52;;
18973;SDS011;9621;48.690;9.466;2022-07-01T12:43:28;6.05;;;1.42;;
18973;SDS011;9621;48.690;9.466;2022-07-01T12:46:02;2.20;;;1.20;;
18973;SDS011;9621;48.690;9.466;2022-07-01T12:48:29;1.83;;;1.05;;
18973;SDS011;9621;48.690;9.466;2022-07-01T12:51:14;1.38;;;1.00;;
18973;SDS011;9621;48.690;9.466;2022-07-01T12:53:49;2.15;;;1.20;;
18973;SDS011;9621;48.690;9.466;2022-07-01T12:56:21;3.40;;;1.13;;
18973;SDS011;9621;48.690;9.466;2022-07-01T12:58:51;2.70;;;1.50;;
18973;SDS011;9621;48.690;9.466;2022-07-01T13:01:18;3.15;;;1.17;;
18973;SDS011;9621;48.690;9.466;2022-07-01T13:03:46;2.05;;;1.17;;
18973;SDS011;9621;48.690;9.466;2022-07-01T13:06:14;2.92;;;0.90;;
18973;SDS011;9621;48.690;9.466;2022-07-01T13:08:41;1.65;;;0.90;;
18973;SDS011;9621;48.690;9.466;2022-07-01T13:11:08;1.50;;;1.00;;
18973;SDS011;9621;48.690;9.466;2022-07-01T13:13:35;1.60;;;1.10;;
18973;SDS011;9621;48.690;9.466;2022-07-01T13:16:03;1.23;;;1.10;;
18973;SDS011;9621;48.690;9.466;2022-07-01T13:18:31;1.40;;;1.00;;
18973;SDS011;9621;48.690;9.466;2022-07-01T13:20:58;2.05;;;1.00;;
18973;SDS011;9621;48.690;9.466;2022-07-01T13:23:25;1.45;;;1.10;;
18973;SDS011;9621;48.690;9.466;2022-07-01T13:25:52;1.83;;;1.17;;
18973;SDS011;9621;48.690;9.466;2022-07-01T13:28:19;2.42;;;1.13;;
18973;SDS011;9621;48.690;9.466;2022-07-01T13:30:46;1.63;;;1.05;;
18973;SDS011;9621;48.690;9.466;2022-07-01T13:33:15;2.90;;;1.10;;
18973;SDS011;9621;48.690;9.466;2022-07-01T13:35:42;1.55;;;1.00;;
18973;SDS011;9621;48.690;9.466;2022-07-01T13:38:09;1.20;;;0.93;;
18973;SDS011;9621;48.690;9.466;2022-07-01T13:40:36;1.45;;;1.13;;
18973;SDS011;9621;48.690;9.466;2022-07-01T13:43:03;1.33;;;0.90;;
18973;SDS011;9621;48.690;9.466;2022-07-01T13:45:30;1.88;;;0.90;;
18973;SDS011;9621;48.690;9.466;2022-07-01T13:47:57;1.67;;;1.02;;
18973;SDS011;9621;48.690;9.466;2022-07-01T13:50:25;1.33;;;0.80;;
18973;SDS011;9621;48.690;9.466;2022-07-01T13:52:52;5.95;;;0.90;;
18973;SDS011;9621;48.690;9.466;2022-07-01T13:55:19;1.92;;;0.77;;
18973;SDS011;9621;48.690;9.466;2022-07-01T13:57:46;1.35;;;0.80;;
18973;SDS011;9621;48.690;9.466;2022-07-01T14:00:15;2.95;;;0.80;;
18973;SDS011;9621;48.690;9.466;2022-07-01T14:02:43;1.33;;;1.10;;
18973;SDS011;9621;48.690;9.466;2022-07-01T14:05:10;3.10;;;0.80;;
18973;SDS011;9621;48.690;9.466;2022-07-01T14:07:39;1.45;;;0.80;;
18973;SDS011;9621;48.690;9.466;2022-07-01T14:10:07;0.77;;;0.60;;
18973;SDS011;9621;48.690;9.466;2022-07-01T14:12:34;0.98;;;0.85;;
18973;SDS011;9621;48.690;9.466;2022-07-01T14:15:01;3.15;;;1.20;;
18973;SDS011;9621;48.690;9.466;2022-07-01T14:17:29;1.42;;;0.70;;
18973;SDS011;9621;48.690;9.466;2022-07-01T14:19:56;1.48;;;0.80;;
18973;SDS011;9621;48.690;9.466;2022-07-01T14:22:23;1.75;;;1.02;;
18973;SDS011;9621;48.690;9.466;2022-07-01T14:24:52;0.95;;;0.70;;
18973;SDS011;9621;48.690;9.466;2022-07-01T14:27:20;1.20;;;0.80;;
18973;SDS011;9621;48.690;9.466;2022-07-01T14:29:47;2.08;;;0.80;;
18973;SDS011;9621;48.690;9.466;2022-07-01T14:32:14;1.75;;;0.93;;
18973;SDS011;9621;48.690;9.466;2022-07-01T14:34:41;1.55;;;0.93;;
18973;SDS011;9621;48.690;9.466;2022-07-01T14:37:08;0.88;;;0.70;;
18973;SDS011;9621;48.690;9.466;2022-07-01T14:39:35;1.88;;;0.80;;
18973;SDS011;9621;48.690;9.466;2022-07-01T14:42:04;1.08;;;0.65;;
18973;SDS011;9621;48.690;9.466;2022-07-01T14:44:31;1.00;;;0.52;;
18973;SDS011;9621;48.690;9.466;2022-07-01T14:46:58;1.20;;;0.77;;
18973;SDS011;9621;48.690;9.466;2022-07-01T14:49:25;3.30;;;0.60;;
18973;SDS011;9621;48.690;9.466;2022-07-01T14:51:52;0.70;;;0.60;;
18973;SDS011;9621;48.690;9.466;2022-07-01T14:54:19;1.45;;;0.50;;
18973;SDS011;9621;48.690;9.466;2022-07-01T14:56:46;1.10;;;0.70;;
18973;SDS011;9621;48.690;9.466;2022-07-01T14:59:15;2.53;;;0.50;;
18973;SDS011;9621;48.690;9.466;2022-07-01T15:01:42;1.00;;;0.60;;
18973;SDS011;9621;48.690;9.466;2022-07-01T15:04:09;1.70;;;0.70;;
18973;SDS011;9621;48.690;9.466;2022-07-01T15:06:36;0.90;;;0.50;;
18973;SDS011;9621;48.690;9.466;2022-07-01T15:09:03;0.88;;;0.65;;
18973;SDS011;9621;48.690;9.466;2022-07-01T15:11:30;1.38;;;0.70;;
18973;SDS011;9621;48.690;9.466;2022-07-01T15:13:58;1.38;;;0.70;;
18973;SDS011;9621;48.690;9.466;2022-07-01T15:16:27;2.97;;;0.70;;
18973;SDS011;9621;48.690;9.466;2022-07-01T15:18:53;1.23;;;0.70;;
18973;SDS011;9621;48.690;9.466;2022-07-01T15:21:20;1.10;;;0.70;;
18973;SDS011;9621;48.690;9.466;2022-07-01T15:23:47;2.60;;;0.88;;
18973;SDS011;9621;48.690;9.466;2022-07-01T15:26:14;2.05;;;0.70;;